sensor_id;sensor_type;location;lat;lon;timestamp;pressure;altitude;pressure_sealevel;temperature;humidity
35647;BME280;28680;45.642;13.756;2022-12-19T00:01:35;103073.22;;;3.70;100.00
35647;BME280;28680;45.642;13.756;2022-12-19T00:04:10;103070.69;;;3.65;100.00
35647;BME280;28680;45.642;13.756;2022-12-19T00:06:37;103068.09;;;3.65;100.00
35647;BME280;28680;45.642;13.756;2022-12-19T00:09:04;103077.66;;;3.60;100.00
35647;BME280;28680;45.642;13.756;2022-12-19T00:11:31;103080.25;;;3.62;100.00
35647;BME280;28680;45.642;13.756;2022-12-19T00:13:58;103072.44;;;3.63;100.00
35647;BME280;28680;45.642;13.756;2022-12-19T00:16:27;103075.91;;;3.62;100.00
35647;BME280;28680;45.642;13.756;2022-12-19T00:18:55;103073.28;;;3.65;100.00
35647;BME280;28680;45.642;13.756;2022-12-19T00:21:25;103077.69;;;3.59;100.00
35647;BME280;28680;45.642;13.756;2022-12-19T00:23:51;103069.84;;;3.63;100.00
35647;BME280;28680;45.642;13.756;2022-12-19T00:26:28;103068.94;;;3.66;100.00
35647;BME280;28680;45.642;13.756;2022-12-19T00:29:01;103078.50;;;3.62;100.00
35647;BME280;28680;45.642;13.756;2022-12-19T00:31:31;103075.06;;;3.63;100.00
35647;BME280;28680;45.642;13.756;2022-12-19T00:33:58;103066.38;;;3.63;100.00
35647;BME280;28680;45.642;13.756;2022-12-19T00:36:27;103072.56;;;3.54;100.00
35647;BME280;28680;45.642;13.756;2022-12-19T00:38:56;103068.22;;;3.53;100.00
35647;BME280;28680;45.642;13.756;2022-12-19T00:41:32;103056.88;;;3.62;100.00
35647;BME280;28680;45.642;13.756;2022-12-19T00:44:03;103062.13;;;3.57;100.00
35647;BME280;28680;45.642;13.756;2022-12-19T00:46:29;103072.28;;;3.76;100.00
35647;BME280;28680;45.642;13.756;2022-12-19T00:48:57;103065.44;;;3.70;100.00
35647;BME280;28680;45.642;13.756;2022-12-19T00:51:29;103067.19;;;3.69;100.00
35647;BME280;28680;45.642;13.756;2022-12-19T00:53:56;103076.56;;;3.80;100.00
35647;BME280;28680;45.642;13.756;2022-12-19T00:56:26;103097.38;;;3.78;100.00
35647;BME280;28680;45.642;13.756;2022-12-19T00:58:53;103088.63;;;3.85;100.00
35647;BME280;28680;45.642;13.756;2022-12-19T01:01:26;103093.06;;;3.76;100.00
35647;BME280;28680;45.642;13.756;2022-12-19T01:03:53;103091.25;;;3.84;100.00
35647;BME280;28680;45.642;13.756;2022-12-19T01:06:19;103100.78;;;3.82;100.00
35647;BME280;28680;45.642;13.756;2022-12-19T01:08:45;103111.22;;;3.80;100.00
35647;BME280;28680;45.642;13.756;2022-12-19T01:11:11;103106.84;;;3.82;100.00
35647;BME280;28680;45.642;13.756;2022-12-19T01:13:38;103092.16;;;3.80;100.00
35647;BME280;28680;45.642;13.756;2022-12-19T01:16:12;103078.28;;;3.82;100.00
35647;BME280;28680;45.642;13.756;2022-12-19T01:18:38;103085.25;;;3.79;100.00
35647;BME280;28680;45.642;13.756;2022-12-19T01:21:07;103093.03;;;3.79;100.00
35647;BME280;28680;45.642;13.756;2022-12-19T01:23:35;103095.63;;;3.80;100.00
35647;BME280;28680;45.642;13.756;2022-12-19T01:26:01;103093.97;;;3.75;100.00
35647;BME280;28680;45.642;13.756;2022-12-19T01:28:28;103099.94;;;3.80;100.00
35647;BME280;28680;45.642;13.756;2022-12-19T01:30:54;103100.75;;;3.85;100.00
35647;BME280;28680;45.642;13.756;2022-12-19T01:33:20;103095.53;;;3.86;100.00
35647;BME280;28680;45.642;13.756;2022-12-19T01:35:46;103105.75;;;4.00;100.00
35647;BME280;28680;45.642;13.756;2022-12-19T01:38:19;103105.66;;;4.08;100.00
35647;BME280;28680;45.642;13.756;2022-12-19T01:40:54;103084.22;;;3.92;100.00
35647;BME280;28680;45.642;13.756;2022-12-19T01:43:22;103084.22;;;3.92;100.00
35647;BME280;28680;45.642;13.756;2022-12-19T01:46:09;103079.09;;;3.86;100.00
35647;BME280;28680;45.642;13.756;2022-12-19T01:48:42;103071.09;;;4.01;100.00
35647;BME280;28680;45.642;13.756;2022-12-19T01:51:21;103076.09;;;4.15;100.00
35647;BME280;28680;45.642;13.756;2022-12-19T01:53:57;103089.84;;;4.23;100.00
35647;BME280;28680;45.642;13.756;2022-12-19T01:56:31;103088.34;;;4.07;100.00
35647;BME280;28680;45.642;13.756;2022-12-19T01:59:04;103069.34;;;4.02;100.00
35647;BME280;28680;45.642;13.756;2022-12-19T02:01:31;103060.72;;;4.01;100.00
35647;BME280;28680;45.642;13.756;2022-12-19T02:03:58;103053.78;;;3.99;100.00
35647;BME280;28680;45.642;13.756;2022-12-19T02:06:27;103053.75;;;4.02;100.00
35647;BME280;28680;45.642;13.756;2022-12-19T02:08:55;103045.88;;;4.08;100.00
35647;BME280;28680;45.642;13.756;2022-12-19T02:11:21;103050.22;;;4.07;100.00
35647;BME280;28680;45.642;13.756;2022-12-19T02:13:47;103040.84;;;3.97;100.00
35647;BME280;28680;45.642;13.756;2022-12-19T02:26:29;103034.59;;;4.12;100.00
35647;BME280;28680;45.642;13.756;2022-12-19T02:29:50;103056.16;;;4.17;100.00
35647;BME280;28680;45.642;13.756;2022-12-19T02:35:16;103038.91;;;4.10;100.00
35647;BME280;28680;45.642;13.756;2022-12-19T02:37:54;103045.75;;;4.17;100.00
35647;BME280;28680;45.642;13.756;2022-12-19T02:40:30;103029.16;;;4.27;100.00
35647;BME280;28680;45.642;13.756;2022-12-19T02:42:59;103031.94;;;4.14;100.00
35647;BME280;28680;45.642;13.756;2022-12-19T02:45:35;103027.66;;;4.09;100.00
35647;BME280;28680;45.642;13.756;2022-12-19T02:48:03;103025.78;;;4.21;100.00
35647;BME280;28680;45.642;13.756;2022-12-19T02:50:42;103030.13;;;4.19;100.00
35647;BME280;28680;45.642;13.756;2022-12-19T02:53:14;103016.38;;;4.12;100.00
35647;BME280;28680;45.642;13.756;2022-12-19T03:01:47;103033.34;;;4.35;100.00
35647;BME280;28680;45.642;13.756;2022-12-19T03:04:35;103038.53;;;4.36;100.00
35647;BME280;28680;45.642;13.756;2022-12-19T03:10:37;103066.56;;;4.16;100.00
35647;BME280;28680;45.642;13.756;2022-12-19T03:13:16;103058.84;;;4.09;100.00
35647;BME280;28680;45.642;13.756;2022-12-19T03:15:45;103046.59;;;4.19;100.00
35647;BME280;28680;45.642;13.756;2022-12-19T03:18:11;103037.97;;;4.16;100.00
35647;BME280;28680;45.642;13.756;2022-12-19T03:20:54;103049.28;;;4.12;100.00
35647;BME280;28680;45.642;13.756;2022-12-19T03:23:24;103037.94;;;4.17;100.00
35647;BME280;28680;45.642;13.756;2022-12-19T03:25:58;103037.06;;;4.20;100.00
35647;BME280;28680;45.642;13.756;2022-12-19T03:28:41;103036.25;;;4.16;100.00
35647;BME280;28680;45.642;13.756;2022-12-19T03:31:10;103034.31;;;4.29;100.00
35647;BME280;28680;45.642;13.756;2022-12-19T03:33:38;103018.78;;;4.26;100.00
35647;BME280;28680;45.642;13.756;2022-12-19T03:36:13;103018.78;;;4.24;100.00
35647;BME280;28680;45.642;13.756;2022-12-19T03:38:43;103021.41;;;4.21;100.00
35647;BME280;28680;45.642;13.756;2022-12-19T03:41:13;103014.63;;;4.13;100.00
35647;BME280;28680;45.642;13.756;2022-12-19T03:43:42;103017.16;;;4.16;100.00
35647;BME280;28680;45.642;13.756;2022-12-19T03:46:23;103014.56;;;4.17;100.00
35647;BME280;28680;45.642;13.756;2022-12-19T03:48:52;103022.09;;;4.34;100.00
35647;BME280;28680;45.642;13.756;2022-12-19T03:51:40;103019.59;;;4.28;100.00
35647;BME280;28680;45.642;13.756;2022-12-19T03:54:22;103018.81;;;4.21;100.00
35647;BME280;28680;45.642;13.756;2022-12-19T03:57:00;103022.34;;;4.19;100.00
35647;BME280;28680;45.642;13.756;2022-12-19T03:59:50;103029.31;;;4.15;100.00
35647;BME280;28680;45.642;13.756;2022-12-19T04:02:20;103025.84;;;4.16;100.00
35647;BME280;28680;45.642;13.756;2022-12-19T04:04:53;103026.81;;;4.10;100.00
35647;BME280;28680;45.642;13.756;2022-12-19T04:07:21;103032.75;;;4.16;100.00
35647;BME280;28680;45.642;13.756;2022-12-19T04:09:49;103028.56;;;4.08;100.00
35647;BME280;28680;45.642;13.756;2022-12-19T04:12:29;103032.03;;;4.06;100.00
35647;BME280;28680;45.642;13.756;2022-12-19T04:14:56;103023.44;;;4.02;100.00
35647;BME280;28680;45.642;13.756;2022-12-19T04:17:51;103023.38;;;4.07;100.00
35647;BME280;28680;45.642;13.756;2022-12-19T04:20:21;103019.00;;;4.10;100.00
35647;BME280;28680;45.642;13.756;2022-12-19T04:23:16;103011.09;;;4.17;100.00
35647;BME280;28680;45.642;13.756;2022-12-19T04:25:50;103016.16;;;4.26;100.00
35647;BME280;28680;45.642;13.756;2022-12-19T04:31:02;103025.91;;;4.10;100.00
35647;BME280;28680;45.642;13.756;2022-12-19T04:33:29;103024.84;;;4.23;100.00
35647;BME280;28680;45.642;13.756;2022-12-19T04:35:54;103024.91;;;4.20;100.00
35647;BME280;28680;45.642;13.756;2022-12-19T04:38:20;103029.22;;;4.21;100.00
35647;BME280;28680;45.642;13.756;2022-12-19T04:40:46;103030.09;;;4.22;100.00
35647;BME280;28680;45.642;13.756;2022-12-19T04:43:12;103024.69;;;4.36;100.00
35647;BME280;28680;45.642;13.756;2022-12-19T04:45:40;103016.88;;;4.37;100.00
35647;BME280;28680;45.642;13.756;2022-12-19T04:48:06;103015.09;;;4.39;100.00
35647;BME280;28680;45.642;13.756;2022-12-19T04:50:34;103007.28;;;4.39;100.00
35647;BME280;28680;45.642;13.756;2022-12-19T04:53:00;103022.81;;;4.44;100.00
35647;BME280;28680;45.642;13.756;2022-12-19T04:55:26;103022.03;;;4.39;100.00
35647;BME280;28680;45.642;13.756;2022-12-19T04:57:52;103009.84;;;4.42;100.00
35647;BME280;28680;45.642;13.756;2022-12-19T05:00:18;103013.22;;;4.46;100.00
35647;BME280;28680;45.642;13.756;2022-12-19T05:02:44;103015.84;;;4.46;100.00
35647;BME280;28680;45.642;13.756;2022-12-19T05:05:11;103017.66;;;4.42;100.00
35647;BME280;28680;45.642;13.756;2022-12-19T05:07:37;103023.81;;;4.35;100.00
35647;BME280;28680;45.642;13.756;2022-12-19T05:10:04;103015.94;;;4.40;100.00
35647;BME280;28680;45.642;13.756;2022-12-19T05:12:30;103023.00;;;4.33;100.00
35647;BME280;28680;45.642;13.756;2022-12-19T05:14:56;103032.50;;;4.33;100.00
35647;BME280;28680;45.642;13.756;2022-12-19T05:17:22;103029.97;;;4.31;100.00
35647;BME280;28680;45.642;13.756;2022-12-19T05:19:48;103030.03;;;4.25;100.00
35647;BME280;28680;45.642;13.756;2022-12-19T05:22:14;103029.22;;;4.21;100.00
35647;BME280;28680;45.642;13.756;2022-12-19T05:24:40;103032.72;;;4.20;100.00
35647;BME280;28680;45.642;13.756;2022-12-19T05:27:06;103029.31;;;4.15;100.00
35647;BME280;28680;45.642;13.756;2022-12-19T05:29:32;103024.06;;;4.20;100.00
35647;BME280;28680;45.642;13.756;2022-12-19T05:31:59;103025.66;;;4.28;100.00
35647;BME280;28680;45.642;13.756;2022-12-19T05:34:25;103030.69;;;4.39;100.00
35647;BME280;28680;45.642;13.756;2022-12-19T11:32:35;103008.78;;;11.36;100.00
35647;BME280;28680;45.642;13.756;2022-12-19T11:38:00;102993.06;;;11.54;100.00
35647;BME280;28680;45.642;13.756;2022-12-19T11:40:52;102987.13;;;11.86;100.00
35647;BME280;28680;45.642;13.756;2022-12-19T11:46:16;102980.69;;;12.81;100.00
35647;BME280;28680;45.642;13.756;2022-12-19T11:49:23;102993.03;;;12.28;100.00
35647;BME280;28680;45.642;13.756;2022-12-19T11:54:23;102978.31;;;11.87;100.00
35647;BME280;28680;45.642;13.756;2022-12-19T11:56:55;102977.28;;;11.54;100.00
35647;BME280;28680;45.642;13.756;2022-12-19T11:59:36;102978.19;;;11.71;100.00
35647;BME280;28680;45.642;13.756;2022-12-19T12:05:25;102968.94;;;11.82;100.00
35647;BME280;28680;45.642;13.756;2022-12-19T12:11:00;102962.28;;;12.28;100.00
35647;BME280;28680;45.642;13.756;2022-12-19T12:20:09;102960.19;;;13.03;100.00
35647;BME280;28680;45.642;13.756;2022-12-19T12:25:51;102961.03;;;13.69;100.00
35647;BME280;28680;45.642;13.756;2022-12-19T12:28:49;102957.75;;;12.83;100.00
35647;BME280;28680;45.642;13.756;2022-12-19T12:34:35;102953.44;;;13.47;100.00
35647;BME280;28680;45.642;13.756;2022-12-19T12:41:18;102946.22;;;14.13;99.77
35647;BME280;28680;45.642;13.756;2022-12-19T12:46:42;102954.06;;;13.98;98.23
35647;BME280;28680;45.642;13.756;2022-12-19T12:50:07;102948.38;;;13.44;99.58
35647;BME280;28680;45.642;13.756;2022-12-19T12:52:39;102941.78;;;13.51;96.36
35647;BME280;28680;45.642;13.756;2022-12-19T12:55:37;102938.41;;;13.65;94.22
35647;BME280;28680;45.642;13.756;2022-12-19T13:01:33;102933.31;;;13.13;100.00
35647;BME280;28680;45.642;13.756;2022-12-19T13:09:21;102937.13;;;13.07;90.30
35647;BME280;28680;45.642;13.756;2022-12-19T13:12:01;102936.75;;;13.31;88.27
35647;BME280;28680;45.642;13.756;2022-12-19T13:14:51;102934.22;;;13.45;91.89
35647;BME280;28680;45.642;13.756;2022-12-19T13:30:33;102913.88;;;12.48;100.00
35647;BME280;28680;45.642;13.756;2022-12-19T13:38:21;102918.41;;;12.62;100.00
35647;BME280;28680;45.642;13.756;2022-12-19T13:41:00;102922.19;;;12.23;100.00
35647;BME280;28680;45.642;13.756;2022-12-19T13:43:47;102922.56;;;12.16;100.00
35647;BME280;28680;45.642;13.756;2022-12-19T13:51:47;102926.72;;;11.47;100.00
35647;BME280;28680;45.642;13.756;2022-12-19T13:54:25;102940.41;;;11.36;100.00
35647;BME280;28680;45.642;13.756;2022-12-19T13:56:53;102935.22;;;11.16;100.00
35647;BME280;28680;45.642;13.756;2022-12-19T13:59:21;102927.81;;;11.24;100.00
35647;BME280;28680;45.642;13.756;2022-12-19T14:01:51;102928.34;;;10.92;100.00
35647;BME280;28680;45.642;13.756;2022-12-19T14:04:29;102920.19;;;10.80;100.00
35647;BME280;28680;45.642;13.756;2022-12-19T14:07:14;102925.38;;;10.81;100.00
35647;BME280;28680;45.642;13.756;2022-12-19T14:09:48;102928.25;;;10.75;100.00
35647;BME280;28680;45.642;13.756;2022-12-19T14:12:28;102930.56;;;10.62;100.00
35647;BME280;28680;45.642;13.756;2022-12-19T14:15:35;102930.84;;;10.56;100.00
35647;BME280;28680;45.642;13.756;2022-12-19T14:18:21;102935.25;;;10.35;100.00
35647;BME280;28680;45.642;13.756;2022-12-19T14:20:50;102936.09;;;10.36;100.00
35647;BME280;28680;45.642;13.756;2022-12-19T14:23:16;102939.75;;;10.31;100.00
35647;BME280;28680;45.642;13.756;2022-12-19T14:25:51;102945.00;;;10.31;100.00
35647;BME280;28680;45.642;13.756;2022-12-19T14:28:54;102944.63;;;10.19;100.00
35647;BME280;28680;45.642;13.756;2022-12-19T14:31:22;102939.19;;;10.45;100.00
35647;BME280;28680;45.642;13.756;2022-12-19T14:33:51;102946.81;;;10.29;100.00
35647;BME280;28680;45.642;13.756;2022-12-19T14:36:29;102939.22;;;10.23;100.00
35647;BME280;28680;45.642;13.756;2022-12-19T14:38:57;102943.25;;;10.10;100.00
35647;BME280;28680;45.642;13.756;2022-12-19T14:44:15;102946.69;;;9.90;100.00
35647;BME280;28680;45.642;13.756;2022-12-19T14:46:42;102946.88;;;9.85;100.00
35647;BME280;28680;45.642;13.756;2022-12-19T14:49:25;102943.56;;;9.80;100.00
35647;BME280;28680;45.642;13.756;2022-12-19T14:51:51;102946.44;;;9.74;100.00
35647;BME280;28680;45.642;13.756;2022-12-19T14:59:41;102935.53;;;9.63;100.00
35647;BME280;28680;45.642;13.756;2022-12-19T15:02:25;102943.19;;;9.45;100.00
35647;BME280;28680;45.642;13.756;2022-12-19T15:05:03;102940.06;;;9.35;100.00
35647;BME280;28680;45.642;13.756;2022-12-19T15:07:32;102940.19;;;9.32;100.00
35647;BME280;28680;45.642;13.756;2022-12-19T15:12:57;102942.13;;;9.27;100.00
35647;BME280;28680;45.642;13.756;2022-12-19T15:15:58;102944.00;;;9.24;100.00
35647;BME280;28680;45.642;13.756;2022-12-19T15:18:39;102940.69;;;9.18;100.00
35647;BME280;28680;45.642;13.756;2022-12-19T15:21:11;102945.03;;;8.96;100.00
35647;BME280;28680;45.642;13.756;2022-12-19T15:23:37;102948.50;;;8.96;100.00
35647;BME280;28680;45.642;13.756;2022-12-19T15:26:18;102937.31;;;8.91;100.00
35647;BME280;28680;45.642;13.756;2022-12-19T15:28:47;102933.16;;;8.86;100.00
35647;BME280;28680;45.642;13.756;2022-12-19T15:31:34;102925.50;;;8.81;100.00
35647;BME280;28680;45.642;13.756;2022-12-19T15:34:30;102930.72;;;8.81;100.00
35647;BME280;28680;45.642;13.756;2022-12-19T15:37:00;102927.13;;;8.84;100.00
35647;BME280;28680;45.642;13.756;2022-12-19T15:39:26;102927.81;;;8.89;100.00
35647;BME280;28680;45.642;13.756;2022-12-19T15:41:57;102936.00;;;8.80;100.00
35647;BME280;28680;45.642;13.756;2022-12-19T15:44:38;102931.31;;;8.64;100.00
35647;BME280;28680;45.642;13.756;2022-12-19T15:49:55;102935.75;;;8.62;100.00
35647;BME280;28680;45.642;13.756;2022-12-19T15:52:21;102928.31;;;8.50;100.00
35647;BME280;28680;45.642;13.756;2022-12-19T15:54:47;102923.09;;;8.50;100.00
35647;BME280;28680;45.642;13.756;2022-12-19T16:00:22;102931.34;;;8.37;100.00
35647;BME280;28680;45.642;13.756;2022-12-19T16:02:50;102920.91;;;8.36;100.00
35647;BME280;28680;45.642;13.756;2022-12-19T16:05:18;102921.59;;;8.41;100.00
35647;BME280;28680;45.642;13.756;2022-12-19T16:07:46;102926.25;;;8.33;100.00
35647;BME280;28680;45.642;13.756;2022-12-19T16:10:13;102927.03;;;8.35;100.00
35647;BME280;28680;45.642;13.756;2022-12-19T16:12:43;102919.94;;;8.38;100.00
35647;BME280;28680;45.642;13.756;2022-12-19T16:15:27;102927.09;;;8.33;100.00
35647;BME280;28680;45.642;13.756;2022-12-19T16:17:56;102930.13;;;8.21;100.00
35647;BME280;28680;45.642;13.756;2022-12-19T16:20:29;102935.28;;;8.24;100.00
35647;BME280;28680;45.642;13.756;2022-12-19T16:22:59;102939.25;;;8.09;100.00
35647;BME280;28680;45.642;13.756;2022-12-19T16:25:40;102938.34;;;8.10;100.00
35647;BME280;28680;45.642;13.756;2022-12-19T16:28:23;102937.47;;;8.10;100.00
35647;BME280;28680;45.642;13.756;2022-12-19T16:30:51;102940.09;;;8.10;100.00
35647;BME280;28680;45.642;13.756;2022-12-19T16:33:28;102950.59;;;8.08;100.00
35647;BME280;28680;45.642;13.756;2022-12-19T16:35:56;102948.25;;;8.00;100.00
35647;BME280;28680;45.642;13.756;2022-12-19T16:38:22;102957.97;;;7.95;100.00
35647;BME280;28680;45.642;13.756;2022-12-19T16:40:50;102956.25;;;7.96;100.00
35647;BME280;28680;45.642;13.756;2022-12-19T16:43:25;102940.84;;;7.87;100.00
35647;BME280;28680;45.642;13.756;2022-12-19T16:45:53;102943.19;;;7.68;100.00
35647;BME280;28680;45.642;13.756;2022-12-19T16:48:23;102940.28;;;7.77;100.00
35647;BME280;28680;45.642;13.756;2022-12-19T16:50:49;102944.41;;;7.84;100.00
35647;BME280;28680;45.642;13.756;2022-12-19T16:53:16;102945.41;;;7.80;100.00
35647;BME280;28680;45.642;13.756;2022-12-19T16:55:43;102947.78;;;7.59;100.00
35647;BME280;28680;45.642;13.756;2022-12-19T16:58:25;102948.84;;;7.52;100.00
35647;BME280;28680;45.642;13.756;2022-12-19T17:00:54;102942.00;;;7.48;100.00
35647;BME280;28680;45.642;13.756;2022-12-19T17:03:36;102939.91;;;7.31;100.00
35647;BME280;28680;45.642;13.756;2022-12-19T17:06:08;102937.34;;;7.30;100.00
35647;BME280;28680;45.642;13.756;2022-12-19T17:08:35;102931.28;;;7.28;100.00
35647;BME280;28680;45.642;13.756;2022-12-19T17:11:01;102940.69;;;7.33;100.00
35647;BME280;28680;45.642;13.756;2022-12-19T17:13:28;102937.81;;;7.42;100.00
35647;BME280;28680;45.642;13.756;2022-12-19T17:16:03;102932.44;;;7.49;100.00
35647;BME280;28680;45.642;13.756;2022-12-19T17:18:40;102937.66;;;7.49;100.00
35647;BME280;28680;45.642;13.756;2022-12-19T17:21:13;102944.63;;;7.48;100.00
35647;BME280;28680;45.642;13.756;2022-12-19T17:23:40;102942.34;;;7.37;100.00
35647;BME280;28680;45.642;13.756;2022-12-19T17:26:06;102937.94;;;7.39;100.00
35647;BME280;28680;45.642;13.756;2022-12-19T17:28:32;102939.75;;;7.37;100.00
35647;BME280;28680;45.642;13.756;2022-12-19T17:31:04;102939.09;;;7.29;100.00
35647;BME280;28680;45.642;13.756;2022-12-19T17:33:37;102941.94;;;7.21;100.00
35647;BME280;28680;45.642;13.756;2022-12-19T17:36:06;102941.88;;;7.23;100.00
35647;BME280;28680;45.642;13.756;2022-12-19T17:38:33;102940.38;;;7.14;100.00
35647;BME280;28680;45.642;13.756;2022-12-19T17:40:59;102940.47;;;7.13;100.00
35647;BME280;28680;45.642;13.756;2022-12-19T17:43:26;102946.63;;;7.09;100.00
35647;BME280;28680;45.642;13.756;2022-12-19T17:45:52;102953.66;;;7.07;100.00
35647;BME280;28680;45.642;13.756;2022-12-19T17:48:28;102949.41;;;7.04;100.00
35647;BME280;28680;45.642;13.756;2022-12-19T17:50:57;102951.19;;;7.02;100.00
35647;BME280;28680;45.642;13.756;2022-12-19T17:53:23;102943.28;;;7.05;100.00
35647;BME280;28680;45.642;13.756;2022-12-19T17:55:50;102948.50;;;7.05;100.00
35647;BME280;28680;45.642;13.756;2022-12-19T17:58:17;102951.59;;;6.88;100.00
35647;BME280;28680;45.642;13.756;2022-12-19T18:00:44;102949.47;;;7.01;100.00
35647;BME280;28680;45.642;13.756;2022-12-19T18:03:22;102946.78;;;7.04;100.00
35647;BME280;28680;45.642;13.756;2022-12-19T18:05:51;102958.28;;;6.97;100.00
35647;BME280;28680;45.642;13.756;2022-12-19T18:08:30;102961.00;;;6.94;100.00
35647;BME280;28680;45.642;13.756;2022-12-19T18:11:00;102941.81;;;6.95;100.00
35647;BME280;28680;45.642;13.756;2022-12-19T18:13:29;102954.88;;;6.95;100.00
35647;BME280;28680;45.642;13.756;2022-12-19T18:16:01;102951.44;;;6.93;100.00
35647;BME280;28680;45.642;13.756;2022-12-19T18:18:32;102941.00;;;6.93;100.00
35647;BME280;28680;45.642;13.756;2022-12-19T18:21:00;102942.63;;;6.97;100.00
35647;BME280;28680;45.642;13.756;2022-12-19T18:23:27;102947.03;;;6.95;100.00
35647;BME280;28680;45.642;13.756;2022-12-19T18:25:55;102947.06;;;6.93;100.00
35647;BME280;28680;45.642;13.756;2022-12-19T18:28:21;102946.22;;;6.93;100.00
35647;BME280;28680;45.642;13.756;2022-12-19T18:30:48;102941.06;;;6.90;100.00
35647;BME280;28680;45.642;13.756;2022-12-19T18:33:23;102942.88;;;6.88;100.00
35647;BME280;28680;45.642;13.756;2022-12-19T18:35:49;102941.19;;;6.87;100.00
35647;BME280;28680;45.642;13.756;2022-12-19T18:38:22;102942.09;;;6.84;100.00
35647;BME280;28680;45.642;13.756;2022-12-19T18:40:50;102936.31;;;6.73;100.00
35647;BME280;28680;45.642;13.756;2022-12-19T18:43:18;102937.25;;;6.70;100.00
35647;BME280;28680;45.642;13.756;2022-12-19T18:45:50;102934.59;;;6.73;100.00
35647;BME280;28680;45.642;13.756;2022-12-19T18:48:30;102940.63;;;6.75;100.00
35647;BME280;28680;45.642;13.756;2022-12-19T18:50:57;102929.31;;;6.75;100.00
35647;BME280;28680;45.642;13.756;2022-12-19T18:53:26;102936.38;;;6.71;100.00
35647;BME280;28680;45.642;13.756;2022-12-19T18:56:04;102938.06;;;6.72;100.00
35647;BME280;28680;45.642;13.756;2022-12-19T18:58:31;102940.84;;;6.66;100.00
35647;BME280;28680;45.642;13.756;2022-12-19T19:00:58;102938.41;;;6.60;100.00
35647;BME280;28680;45.642;13.756;2022-12-19T19:03:37;102940.09;;;6.62;100.00
35647;BME280;28680;45.642;13.756;2022-12-19T19:06:23;102939.50;;;6.51;100.00
35647;BME280;28680;45.642;13.756;2022-12-19T19:08:55;102937.72;;;6.53;100.00
35647;BME280;28680;45.642;13.756;2022-12-19T19:11:22;102931.75;;;6.48;100.00
35647;BME280;28680;45.642;13.756;2022-12-19T19:13:49;102933.56;;;6.44;100.00
35647;BME280;28680;45.642;13.756;2022-12-19T19:16:25;102924.13;;;6.40;100.00
35647;BME280;28680;45.642;13.756;2022-12-19T19:18:54;102924.06;;;6.43;100.00
35647;BME280;28680;45.642;13.756;2022-12-19T19:21:27;102924.03;;;6.45;100.00
35647;BME280;28680;45.642;13.756;2022-12-19T19:24:14;102926.72;;;6.40;100.00
35647;BME280;28680;45.642;13.756;2022-12-19T19:26:41;102919.78;;;6.41;100.00
35647;BME280;28680;45.642;13.756;2022-12-19T19:29:08;102931.25;;;6.34;100.00
35647;BME280;28680;45.642;13.756;2022-12-19T19:31:37;102930.50;;;6.29;100.00
35647;BME280;28680;45.642;13.756;2022-12-19T19:34:13;102927.94;;;6.27;100.00
35647;BME280;28680;45.642;13.756;2022-12-19T19:36:43;102932.44;;;6.22;100.00
35647;BME280;28680;45.642;13.756;2022-12-19T19:39:10;102925.56;;;6.18;100.00
35647;BME280;28680;45.642;13.756;2022-12-19T19:41:37;102919.50;;;6.17;100.00
35647;BME280;28680;45.642;13.756;2022-12-19T19:44:03;102920.44;;;6.15;100.00
35647;BME280;28680;45.642;13.756;2022-12-19T19:46:29;102918.81;;;6.11;100.00
35647;BME280;28680;45.642;13.756;2022-12-19T19:48:56;102914.47;;;6.10;100.00
35647;BME280;28680;45.642;13.756;2022-12-19T19:51:22;102911.75;;;6.14;100.00
35647;BME280;28680;45.642;13.756;2022-12-19T19:53:48;102914.47;;;6.10;100.00
35647;BME280;28680;45.642;13.756;2022-12-19T19:56:13;102920.72;;;6.02;100.00
35647;BME280;28680;45.642;13.756;2022-12-19T19:58:39;102920.75;;;6.01;100.00
35647;BME280;28680;45.642;13.756;2022-12-19T20:01:11;102929.59;;;5.95;100.00
35647;BME280;28680;45.642;13.756;2022-12-19T20:03:38;102919.09;;;5.98;100.00
35647;BME280;28680;45.642;13.756;2022-12-19T20:06:06;102925.09;;;6.02;100.00
35647;BME280;28680;45.642;13.756;2022-12-19T20:08:35;102928.53;;;6.02;100.00
35647;BME280;28680;45.642;13.756;2022-12-19T20:11:02;102917.84;;;6.15;100.00
35647;BME280;28680;45.642;13.756;2022-12-19T20:13:29;102924.78;;;6.14;100.00
35647;BME280;28680;45.642;13.756;2022-12-19T20:16:14;102930.16;;;6.08;100.00
35647;BME280;28680;45.642;13.756;2022-12-19T20:18:54;102921.28;;;6.15;100.00
35647;BME280;28680;45.642;13.756;2022-12-19T20:21:22;102920.41;;;6.16;100.00
35647;BME280;28680;45.642;13.756;2022-12-19T20:23:49;102929.47;;;6.01;100.00
35647;BME280;28680;45.642;13.756;2022-12-19T20:26:18;102921.50;;;6.06;100.00
35647;BME280;28680;45.642;13.756;2022-12-19T20:28:49;102924.06;;;6.09;100.00
35647;BME280;28680;45.642;13.756;2022-12-19T20:31:23;102921.53;;;6.04;100.00
35647;BME280;28680;45.642;13.756;2022-12-19T20:33:52;102920.72;;;6.02;100.00
35647;BME280;28680;45.642;13.756;2022-12-19T20:36:18;102916.47;;;6.00;100.00
35647;BME280;28680;45.642;13.756;2022-12-19T20:38:48;102922.53;;;5.99;100.00
35647;BME280;28680;45.642;13.756;2022-12-19T20:41:15;102921.75;;;5.95;100.00
35647;BME280;28680;45.642;13.756;2022-12-19T20:43:42;102924.38;;;5.95;100.00
35647;BME280;28680;45.642;13.756;2022-12-19T20:46:13;102924.41;;;5.94;100.00
35647;BME280;28680;45.642;13.756;2022-12-19T20:48:43;102927.88;;;5.93;100.00